Time;durP1;ratioP1;P1;durP2;ratioP2;P2;SDS_P1;SDS_P2;PMS_P1;PMS_P2;Temp;Humidity;BMP_temperature;BMP_pressure;BME280_temperature;BME280_humidity;BME280_pressure;Samples;Min_cycle;Max_cycle;Signal;HPM_P1;HPM_P2
2021/06/21 00:01:51;;;;;;;11.63;3.80;;;17.80;99.90;;;;;;5033351;28;20474;-79
2021/06/21 00:04:19;;;;;;;6.78;3.78;;;17.80;99.90;;;;;;5033151;28;20457;-77
2021/06/21 00:06:46;;;;;;;5.68;4.18;;;17.80;99.90;;;;;;5033566;28;20207;-77
2021/06/21 00:09:13;;;;;;;9.33;4.27;;;17.80;99.90;;;;;;5040679;28;20205;-78
2021/06/21 00:11:40;;;;;;;7.32;4.35;;;17.80;99.90;;;;;;5032254;28;20466;-81
2021/06/21 00:14:10;;;;;;;6.78;3.85;;;17.80;99.90;;;;;;5033300;28;20215;-79
2021/06/21 00:16:38;;;;;;;9.93;3.70;;;17.80;99.90;;;;;;5032898;28;20314;-78
2021/06/21 00:19:05;;;;;;;7.23;4.10;;;17.80;99.90;;;;;;5037923;28;20562;-78
2021/06/21 00:21:32;;;;;;;6.40;3.70;;;17.80;99.90;;;;;;5030307;28;20817;-79
2021/06/21 00:24:00;;;;;;;4.70;3.90;;;17.80;99.90;;;;;;5037789;28;20915;-80
2021/06/21 00:26:27;;;;;;;8.40;5.10;;;17.80;99.90;;;;;;5032885;28;20217;-78
2021/06/21 00:28:55;;;;;;;6.60;3.70;;;17.80;99.90;;;;;;5032655;28;20449;-79
2021/06/21 00:31:22;;;;;;;4.60;4.20;;;17.70;99.90;;;;;;5032288;28;20466;-80
2021/06/21 00:33:51;;;;;;;6.68;4.95;;;17.70;99.90;;;;;;5034320;28;20270;-80
2021/06/21 00:36:18;;;;;;;7.35;4.70;;;17.70;99.90;;;;;;5043534;28;20206;-81
2021/06/21 00:38:45;;;;;;;7.07;5.00;;;17.70;99.90;;;;;;5033978;28;20307;-78
2021/06/21 00:41:12;;;;;;;9.90;5.28;;;17.70;99.90;;;;;;5040535;28;20285;-78
2021/06/21 00:43:39;;;;;;;8.05;4.90;;;17.60;99.90;;;;;;5038111;28;20238;-75
2021/06/21 00:46:07;;;;;;;10.00;4.93;;;17.60;99.90;;;;;;5056514;28;20203;-75
2021/06/21 00:48:34;;;;;;;8.83;5.57;;;17.60;99.90;;;;;;5050823;28;20440;-75
2021/06/21 00:51:02;;;;;;;6.13;4.88;;;17.60;99.90;;;;;;5052258;28;20437;-74
2021/06/21 00:53:30;;;;;;;5.20;4.07;;;17.60;99.90;;;;;;5037557;28;20203;-78
2021/06/21 00:55:57;;;;;;;5.57;4.85;;;17.60;99.90;;;;;;5038358;28;20230;-81
2021/06/21 00:58:25;;;;;;;5.93;4.15;;;17.70;99.90;;;;;;5028736;28;20211;-79
2021/06/21 01:00:52;;;;;;;8.77;4.90;;;17.60;99.90;;;;;;5031527;28;20232;-74
2021/06/21 01:03:19;;;;;;;9.80;4.80;;;17.70;99.90;;;;;;5116249;23;20227;-79
2021/06/21 01:05:46;;;;;;;8.30;5.10;;;17.70;99.90;;;;;;5067345;28;20298;-81
2021/06/21 01:08:15;;;;;;;8.27;5.33;;;17.60;99.90;;;;;;5075308;28;20433;-80
2021/06/21 01:11:09;;;;;;;10.60;5.25;;;17.70;99.90;;;;;;5071074;28;20464;-84
2021/06/21 01:13:58;;;;;;;10.70;5.70;;;17.80;99.90;;;;;;5052717;28;20225;-82
2021/06/21 01:16:29;;;;;;;8.70;5.13;;;17.60;99.90;;;;;;5064613;28;20454;-85
2021/06/21 01:19:02;;;;;;;9.48;5.53;;;17.60;99.90;;;;;;5053860;28;20205;-83
2021/06/21 01:22:08;;;;;;;7.63;5.13;;;17.60;99.90;;;;;;5061360;28;20209;-85
2021/06/21 01:25:08;;;;;;;11.15;5.70;;;17.60;99.90;;;;;;5054577;28;20228;-85
2021/06/21 01:27:46;;;;;;;8.20;5.95;;;17.60;99.90;;;;;;5060354;28;20185;-79
2021/06/21 01:30:16;;;;;;;7.88;6.00;;;17.60;99.90;;;;;;5071308;28;20211;-80
2021/06/21 01:32:47;;;;;;;10.75;7.20;;;17.60;99.90;;;;;;5067944;28;20215;-81
2021/06/21 01:35:20;;;;;;;10.20;6.32;;;17.60;99.90;;;;;;5067863;28;20624;-83
2021/06/21 01:37:52;;;;;;;7.55;6.72;;;17.50;99.90;;;;;;5074121;28;20220;-81
2021/06/21 01:40:21;;;;;;;9.85;6.75;;;17.50;99.90;;;;;;5064741;28;20300;-81
2021/06/21 01:42:53;;;;;;;11.32;8.10;;;17.50;99.90;;;;;;5065455;28;20194;-82
2021/06/21 01:45:20;;;;;;;7.87;7.07;;;17.50;99.90;;;;;;5071556;28;20210;-79
2021/06/21 01:47:50;;;;;;;12.02;7.22;;;17.50;99.90;;;;;;5072980;28;20458;-79
2021/06/21 01:50:20;;;;;;;8.90;7.43;;;17.50;99.90;;;;;;5068108;28;20275;-80
2021/06/21 01:52:52;;;;;;;7.38;6.50;;;17.50;99.90;;;;;;5068297;28;20220;-78
2021/06/21 01:55:57;;;;;;;11.73;7.25;;;17.50;99.90;;;;;;5074868;28;20215;-80
2021/06/21 01:58:25;;;;;;;8.20;6.15;;;17.40;99.90;;;;;;5061379;28;20257;-79
2021/06/21 02:00:53;;;;;;;8.95;6.95;;;17.40;99.90;;;;;;5064515;28;20212;-84
2021/06/21 02:03:22;;;;;;;10.90;6.75;;;17.40;99.90;;;;;;5066450;28;20230;-82
2021/06/21 02:05:51;;;;;;;8.57;6.85;;;17.40;99.90;;;;;;5064154;28;20207;-82
2021/06/21 02:08:20;;;;;;;9.65;6.28;;;17.40;99.90;;;;;;5070356;28;20217;-82
2021/06/21 02:10:50;;;;;;;8.90;6.72;;;17.40;99.90;;;;;;5057834;28;20212;-82
2021/06/21 02:13:20;;;;;;;6.85;5.43;;;17.40;99.90;;;;;;5064453;28;20232;-83
2021/06/21 02:15:48;;;;;;;8.52;5.18;;;17.30;99.90;;;;;;5063326;28;20229;-81
2021/06/21 02:18:19;;;;;;;7.85;6.05;;;17.30;99.90;;;;;;5062423;28;20205;-82
2021/06/21 02:20:48;;;;;;;11.02;6.30;;;17.30;99.90;;;;;;5071892;28;20288;-79
2021/06/21 02:23:17;;;;;;;9.00;4.97;;;17.20;99.90;;;;;;5064885;28;20224;-84
2021/06/21 02:25:45;;;;;;;7.90;5.43;;;17.20;99.90;;;;;;5070615;28;20205;-81
2021/06/21 02:28:13;;;;;;;9.27;5.53;;;17.10;99.90;;;;;;5069171;28;20211;-84
2021/06/21 02:30:42;;;;;;;8.13;5.53;;;17.10;99.90;;;;;;5070643;28;20193;-82
2021/06/21 02:33:09;;;;;;;10.43;6.68;;;17.10;99.90;;;;;;5071670;28;20212;-82
2021/06/21 02:35:36;;;;;;;9.30;6.72;;;17.10;99.90;;;;;;5064047;28;20231;-82
2021/06/21 02:38:05;;;;;;;10.98;5.55;;;17.10;99.90;;;;;;5059976;28;20208;-85
2021/06/21 02:40:32;;;;;;;6.97;5.78;;;17.10;99.90;;;;;;5063855;28;20205;-83
2021/06/21 02:43:00;;;;;;;8.82;6.55;;;17.00;99.90;;;;;;5059298;28;20202;-80
2021/06/21 02:45:29;;;;;;;10.30;6.00;;;16.90;99.90;;;;;;5049743;28;20210;-84
2021/06/21 02:47:56;;;;;;;7.25;6.22;;;16.90;99.90;;;;;;5066554;28;20204;-85
2021/06/21 02:50:24;;;;;;;7.13;5.82;;;16.90;99.90;;;;;;5052311;28;20216;-83
2021/06/21 02:53:01;;;;;;;8.35;6.45;;;16.80;99.90;;;;;;5064611;28;20198;-85
2021/06/21 02:55:36;;;;;;;7.97;6.30;;;16.80;99.90;;;;;;5059446;28;20247;-84
2021/06/21 02:58:11;;;;;;;10.65;6.15;;;16.70;99.90;;;;;;5054230;28;20276;-83
2021/06/21 03:00:40;;;;;;;9.55;7.18;;;16.70;99.90;;;;;;5056328;28;20198;-85
2021/06/21 03:03:09;;;;;;;11.48;6.32;;;16.70;99.90;;;;;;5058185;28;20645;-84
2021/06/21 03:05:38;;;;;;;13.48;6.78;;;16.70;99.90;;;;;;5063204;28;20214;-83
2021/06/21 03:08:09;;;;;;;9.35;7.53;;;16.60;99.90;;;;;;5064837;28;20205;-81
2021/06/21 03:10:39;;;;;;;9.65;8.27;;;16.60;99.90;;;;;;5064833;28;20221;-85
2021/06/21 03:13:07;;;;;;;15.63;7.70;;;16.60;99.90;;;;;;5063422;28;20189;-84
2021/06/21 03:15:35;;;;;;;12.38;7.38;;;16.50;99.90;;;;;;5060696;28;20315;-85
2021/06/21 03:18:02;;;;;;;9.60;6.38;;;16.50;99.90;;;;;;5059028;28;20289;-85
2021/06/21 03:20:30;;;;;;;8.57;7.18;;;16.50;99.90;;;;;;5071833;28;20237;-79
2021/06/21 03:22:59;;;;;;;8.85;7.30;;;16.50;99.90;;;;;;5073792;28;20204;-82
2021/06/21 03:25:28;;;;;;;8.30;7.47;;;16.40;99.90;;;;;;5056552;28;20195;-84
2021/06/21 03:27:57;;;;;;;7.93;7.18;;;16.40;99.90;;;;;;5057498;28;20209;-83
2021/06/21 03:30:25;;;;;;;9.38;7.03;;;16.30;99.90;;;;;;5050057;28;20265;-84
2021/06/21 03:32:53;;;;;;;13.02;9.13;;;16.30;99.90;;;;;;5066112;28;20208;-80
2021/06/21 03:35:22;;;;;;;10.55;8.02;;;16.20;99.90;;;;;;5063034;28;20225;-85
2021/06/21 03:37:49;;;;;;;9.48;8.25;;;16.20;99.90;;;;;;5065791;28;20200;-84
2021/06/21 03:40:17;;;;;;;11.18;9.48;;;16.10;99.90;;;;;;5055686;28;20268;-83
2021/06/21 03:42:44;;;;;;;9.88;8.85;;;16.00;99.90;;;;;;5057791;28;20214;-84
2021/06/21 03:45:14;;;;;;;11.68;9.15;;;16.00;99.90;;;;;;5057600;28;20259;-83
2021/06/21 03:47:42;;;;;;;10.50;8.52;;;16.00;99.90;;;;;;5058402;28;20242;-84
2021/06/21 03:50:10;;;;;;;9.60;8.68;;;16.00;99.90;;;;;;5059574;28;20211;-83
2021/06/21 03:52:37;;;;;;;14.57;10.00;;;15.90;99.90;;;;;;5066940;28;20263;-84
2021/06/21 03:55:09;;;;;;;12.30;8.95;;;15.90;99.90;;;;;;5069695;28;20556;-81
2021/06/21 03:57:40;;;;;;;13.40;8.65;;;15.90;99.90;;;;;;5057212;28;20245;-82
2021/06/21 04:00:11;;;;;;;10.05;8.43;;;15.70;99.90;;;;;;5065622;28;20210;-85
2021/06/21 04:02:40;;;;;;;12.25;8.90;;;15.70;99.90;;;;;;5060036;28;20234;-82
2021/06/21 04:05:08;;;;;;;10.73;9.05;;;15.60;99.90;;;;;;5064906;28;20585;-85
2021/06/21 04:07:35;;;;;;;13.55;9.07;;;15.60;99.90;;;;;;5059489;28;20200;-83
2021/06/21 04:10:04;;;;;;;10.55;8.32;;;15.60;99.90;;;;;;5061542;28;20192;-82
2021/06/21 04:12:31;;;;;;;8.45;7.25;;;15.60;99.90;;;;;;5065446;28;20214;-85
2021/06/21 04:14:59;;;;;;;8.02;7.20;;;15.50;99.90;;;;;;5065155;28;20318;-82
2021/06/21 04:17:26;;;;;;;9.05;7.70;;;15.50;99.90;;;;;;5064255;28;20196;-83
2021/06/21 04:19:54;;;;;;;8.10;7.38;;;15.50;99.90;;;;;;5054735;28;20208;-81
2021/06/21 04:22:22;;;;;;;9.50;7.32;;;15.50;99.90;;;;;;5071719;28;20191;-80
2021/06/21 04:24:49;;;;;;;9.93;8.55;;;15.50;99.90;;;;;;5069914;28;20203;-78
2021/06/21 04:27:17;;;;;;;7.30;6.60;;;15.50;99.90;;;;;;5072716;28;20180;-79
2021/06/21 04:29:44;;;;;;;8.45;7.55;;;15.50;99.90;;;;;;5066914;28;20281;-79
2021/06/21 04:32:11;;;;;;;8.52;6.90;;;15.40;99.90;;;;;;5074879;28;20195;-83
2021/06/21 04:34:39;;;;;;;8.23;6.65;;;15.50;99.90;;;;;;5069255;28;20632;-84
2021/06/21 04:37:08;;;;;;;9.35;8.45;;;15.50;99.90;;;;;;5063924;28;20231;-83
2021/06/21 04:39:35;;;;;;;9.30;7.13;;;15.50;99.90;;;;;;5060406;28;20306;-81
2021/06/21 04:42:02;;;;;;;7.57;6.88;;;15.50;99.90;;;;;;5074167;28;20207;-79
2021/06/21 04:44:29;;;;;;;10.07;7.68;;;15.50;99.90;;;;;;5074581;28;20211;-80
2021/06/21 04:46:56;;;;;;;8.45;7.40;;;15.50;99.90;;;;;;5067983;28;20305;-82
2021/06/21 04:49:23;;;;;;;7.65;6.78;;;15.50;99.90;;;;;;5056131;28;20210;-83
2021/06/21 04:51:52;;;;;;;6.50;5.90;;;15.40;99.90;;;;;;5055459;28;20207;-83
2021/06/21 04:54:20;;;;;;;7.85;6.60;;;15.40;99.90;;;;;;5058631;28;20224;-84
2021/06/21 04:56:48;;;;;;;9.57;6.82;;;15.40;99.90;;;;;;5064074;28;20715;-83
2021/06/21 04:59:15;;;;;;;8.20;6.82;;;15.40;99.90;;;;;;5068965;28;20203;-82
2021/06/21 05:01:42;;;;;;;6.78;6.07;;;15.40;99.90;;;;;;5067973;28;20251;-83
2021/06/21 05:04:09;;;;;;;9.85;7.22;;;15.40;99.90;;;;;;5064587;28;20264;-78
2021/06/21 05:06:37;;;;;;;7.82;5.90;;;15.40;99.90;;;;;;5068964;28;20214;-81
2021/06/21 05:09:05;;;;;;;7.03;6.32;;;15.30;99.90;;;;;;5063396;28;20260;-83
2021/06/21 05:11:39;;;;;;;7.38;6.68;;;15.30;99.90;;;;;;5068429;28;20268;-82
2021/06/21 05:14:06;;;;;;;7.80;6.03;;;15.30;99.90;;;;;;5065961;28;20231;-81
2021/06/21 05:16:33;;;;;;;6.95;6.28;;;15.30;99.90;;;;;;5071818;28;20224;-83
2021/06/21 05:19:01;;;;;;;7.35;6.65;;;15.30;99.90;;;;;;5077639;28;20259;-81
2021/06/21 05:21:28;;;;;;;7.65;6.75;;;15.30;99.90;;;;;;5069640;28;20191;-82
2021/06/21 05:23:59;;;;;;;7.35;6.75;;;15.30;99.90;;;;;;5076259;28;20220;-81
2021/06/21 05:26:27;;;;;;;7.82;6.82;;;15.20;99.90;;;;;;5075532;28;20199;-80
2021/06/21 05:28:56;;;;;;;7.88;7.07;;;15.30;99.90;;;;;;5067223;28;20206;-78
2021/06/21 05:31:23;;;;;;;7.43;6.72;;;15.30;99.90;;;;;;5069405;28;20207;-79
2021/06/21 05:33:50;;;;;;;7.60;6.70;;;15.20;99.90;;;;;;5074081;28;20240;-81
2021/06/21 05:36:17;;;;;;;7.13;5.97;;;15.30;99.90;;;;;;5062730;28;20220;-80
2021/06/21 05:38:44;;;;;;;7.28;6.57;;;15.30;99.90;;;;;;5058300;28;20280;-78
2021/06/21 05:41:12;;;;;;;8.73;7.30;;;15.30;99.90;;;;;;5051560;28;20231;-78
2021/06/21 05:43:39;;;;;;;7.80;7.00;;;15.30;99.90;;;;;;5058385;28;20231;-77
2021/06/21 05:46:07;;;;;;;10.50;7.05;;;15.30;99.90;;;;;;5053840;28;20200;-80
2021/06/21 05:48:34;;;;;;;8.10;6.97;;;15.30;99.90;;;;;;5063180;28;20214;-80
2021/06/21 05:51:01;;;;;;;6.50;5.80;;;15.30;99.90;;;;;;5063893;28;20211;-81
2021/06/21 05:53:29;;;;;;;8.10;7.30;;;15.30;99.90;;;;;;5058519;28;20228;-80
2021/06/21 05:55:56;;;;;;;8.98;8.07;;;15.30;99.90;;;;;;5054878;28;20220;-77
2021/06/21 05:58:23;;;;;;;8.85;6.60;;;15.30;99.90;;;;;;5056433;28;20200;-79
2021/06/21 06:00:51;;;;;;;8.70;6.50;;;15.40;99.90;;;;;;5057342;28;20208;-80
2021/06/21 06:03:19;;;;;;;9.43;8.35;;;15.40;99.90;;;;;;5055422;28;20235;-79
2021/06/21 06:05:46;;;;;;;7.53;6.82;;;15.40;99.90;;;;;;5049693;28;20203;-80
2021/06/21 06:08:13;;;;;;;7.18;6.57;;;15.40;99.90;;;;;;5054001;28;20207;-77
2021/06/21 06:10:40;;;;;;;7.82;7.07;;;15.30;99.90;;;;;;5045545;28;20285;-79
2021/06/21 06:13:08;;;;;;;8.25;7.47;;;15.40;99.90;;;;;;5054948;28;20192;-79
2021/06/21 06:15:35;;;;;;;10.23;8.57;;;15.40;99.90;;;;;;5064565;28;20234;-80
2021/06/21 06:18:02;;;;;;;8.98;6.95;;;15.40;99.90;;;;;;5055346;28;20200;-79
2021/06/21 06:20:31;;;;;;;9.15;7.65;;;15.50;99.90;;;;;;5060893;28;20303;-77
2021/06/21 06:22:58;;;;;;;9.90;8.90;;;15.50;99.90;;;;;;5054873;28;20200;-78
2021/06/21 06:25:25;;;;;;;10.05;8.32;;;15.40;99.90;;;;;;5062234;28;20196;-79
2021/06/21 06:27:55;;;;;;;10.55;6.15;;;15.50;99.90;;;;;;5057408;28;20211;-78
2021/06/21 06:30:23;;;;;;;7.75;6.00;;;15.40;99.90;;;;;;5060506;28;20660;-79
2021/06/21 06:32:50;;;;;;;12.75;6.00;;;15.40;99.90;;;;;;5063701;28;20215;-77
2021/06/21 06:35:17;;;;;;;6.90;5.30;;;15.40;99.90;;;;;;5063210;28;20233;-77
2021/06/21 06:37:47;;;;;;;14.88;7.32;;;15.40;99.90;;;;;;5060317;28;20239;-76
2021/06/21 06:40:15;;;;;;;14.05;8.82;;;15.40;99.90;;;;;;5059848;28;20479;-77
2021/06/21 06:42:42;;;;;;;17.20;7.18;;;15.40;99.90;;;;;;5062934;28;20219;-78
2021/06/21 06:45:11;;;;;;;13.05;6.55;;;15.40;99.90;;;;;;5062075;28;20227;-78
2021/06/21 06:47:39;;;;;;;10.20;7.30;;;15.10;99.90;;;;;;5061177;28;20200;-78
2021/06/21 06:50:08;;;;;;;10.13;6.65;;;15.40;99.90;;;;;;5059551;28;20195;-77
2021/06/21 06:52:36;;;;;;;7.45;6.00;;;15.40;99.90;;;;;;5057627;28;20211;-76
2021/06/21 06:57:50;;;;;;;8.18;5.32;;;15.30;99.90;;;;;;5058012;28;20237;-77
2021/06/21 07:00:18;;;;;;;6.60;5.40;;;15.40;99.90;;;;;;5060278;28;20707;-79
2021/06/21 07:02:46;;;;;;;6.32;4.10;;;15.40;99.90;;;;;;5061162;28;20218;-78
2021/06/21 07:05:14;;;;;;;5.30;4.80;;;15.40;99.90;;;;;;5105962;22;20323;-73
2021/06/21 07:07:41;;;;;;;4.25;3.80;;;15.40;99.90;;;;;;5030042;28;20200;-73
2021/06/21 07:10:11;;;;;;;4.40;4.00;;;15.50;99.90;;;;;;5026859;28;20203;-73
2021/06/21 07:12:38;;;;;;;3.80;3.50;;;15.50;99.90;;;;;;5026273;28;20670;-74
2021/06/21 07:15:06;;;;;;;3.92;3.53;;;15.50;99.90;;;;;;5032339;28;20204;-74
2021/06/21 07:17:34;;;;;;;3.97;3.47;;;15.50;99.90;;;;;;5033067;28;20224;-74
2021/06/21 07:20:02;;;;;;;4.10;3.80;;;15.50;99.90;;;;;;5031531;28;20666;-74
2021/06/21 07:22:29;;;;;;;3.25;2.70;;;15.50;99.90;;;;;;5032273;28;20757;-73
2021/06/21 07:24:56;;;;;;;3.45;3.10;;;15.50;99.90;;;;;;5032636;28;20204;-73
2021/06/21 07:27:26;;;;;;;3.80;3.40;;;15.50;99.90;;;;;;5026765;28;20201;-73
2021/06/21 07:29:53;;;;;;;3.42;3.13;;;15.60;99.90;;;;;;5027804;28;20219;-73
2021/06/21 07:32:20;;;;;;;5.30;3.50;;;15.50;99.90;;;;;;5031619;28;20251;-73
2021/06/21 07:34:48;;;;;;;3.80;3.50;;;15.50;99.90;;;;;;5030470;28;20223;-73
2021/06/21 07:37:15;;;;;;;3.58;3.28;;;15.50;99.90;;;;;;5026136;28;20996;-73
2021/06/21 07:39:42;;;;;;;4.00;3.70;;;15.50;99.90;;;;;;5026530;28;20227;-73
2021/06/21 07:42:09;;;;;;;5.78;2.95;;;15.60;99.90;;;;;;5030166;28;20224;-73
2021/06/21 07:44:38;;;;;;;3.38;2.90;;;15.60;99.90;;;;;;5032546;28;20208;-75
2021/06/21 07:47:06;;;;;;;3.95;3.60;;;15.70;99.90;;;;;;5032686;28;20287;-73
2021/06/21 07:49:36;;;;;;;3.00;2.80;;;15.70;99.90;;;;;;5030203;28;20201;-74
2021/06/21 07:52:03;;;;;;;5.32;3.30;;;15.80;99.90;;;;;;5032076;28;20228;-75
2021/06/21 07:54:30;;;;;;;4.00;3.65;;;15.90;99.90;;;;;;5031944;28;20631;-76
2021/06/21 07:56:57;;;;;;;4.70;3.50;;;15.90;99.90;;;;;;5031316;28;20265;-74
2021/06/21 07:59:24;;;;;;;3.10;2.60;;;16.00;99.90;;;;;;5033009;28;20200;-76
2021/06/21 08:01:53;;;;;;;4.45;2.85;;;16.00;99.90;;;;;;5031854;28;20234;-75
2021/06/21 08:04:20;;;;;;;3.10;2.35;;;16.00;99.90;;;;;;5027699;28;20295;-74
2021/06/21 08:06:47;;;;;;;3.65;2.67;;;16.10;99.90;;;;;;5031441;28;20196;-74
2021/06/21 08:09:14;;;;;;;2.33;1.95;;;16.20;99.90;;;;;;5025884;28;20568;-75
2021/06/21 08:11:41;;;;;;;2.42;2.22;;;16.20;99.90;;;;;;5034298;28;20242;-75
2021/06/21 08:14:09;;;;;;;1.92;1.83;;;16.20;99.90;;;;;;5034950;28;20209;-75
2021/06/21 08:16:36;;;;;;;1.95;1.85;;;16.20;99.90;;;;;;5033661;28;20212;-77
2021/06/21 08:19:04;;;;;;;2.75;2.55;;;16.20;99.90;;;;;;5013929;28;20201;-76
2021/06/21 08:21:31;;;;;;;2.22;2.03;;;16.20;99.90;;;;;;5031555;28;20681;-76
2021/06/21 08:23:59;;;;;;;3.05;2.85;;;16.20;99.90;;;;;;5022950;28;20205;-74
2021/06/21 08:26:26;;;;;;;2.40;2.20;;;16.20;99.90;;;;;;5031825;28;20201;-75
2021/06/21 08:28:54;;;;;;;2.80;2.00;;;16.30;99.90;;;;;;5031299;28;20204;-76
2021/06/21 08:31:21;;;;;;;4.65;2.72;;;16.40;99.90;;;;;;5031568;28;20233;-76
2021/06/21 08:33:49;;;;;;;2.92;2.55;;;16.40;99.90;;;;;;5031409;28;20216;-76
2021/06/21 08:36:17;;;;;;;2.72;2.10;;;16.50;99.90;;;;;;5031590;28;20232;-74
2021/06/21 08:38:44;;;;;;;2.80;2.60;;;16.50;99.90;;;;;;5030846;28;20200;-74
2021/06/21 08:41:12;;;;;;;3.10;2.50;;;16.50;99.90;;;;;;5032018;28;20227;-76
2021/06/21 08:43:40;;;;;;;2.13;1.98;;;16.60;99.90;;;;;;5032013;28;20249;-75
2021/06/21 08:46:07;;;;;;;4.90;1.80;;;16.70;99.90;;;;;;5027227;28;20228;-76
2021/06/21 08:48:34;;;;;;;2.85;2.35;;;16.80;99.90;;;;;;5030947;28;20893;-75
2021/06/21 08:51:02;;;;;;;2.85;2.40;;;16.90;99.90;;;;;;5031684;28;20220;-75
2021/06/21 08:53:31;;;;;;;2.25;2.05;;;17.00;99.90;;;;;;5025760;28;20208;-75
2021/06/21 08:55:58;;;;;;;2.75;1.85;;;17.10;99.90;;;;;;5031105;28;20206;-76
2021/06/21 08:58:26;;;;;;;1.65;1.50;;;17.20;99.90;;;;;;5031810;28;20317;-74
2021/06/21 09:00:53;;;;;;;1.90;1.80;;;17.40;99.90;;;;;;5029954;28;20207;-74
2021/06/21 09:03:20;;;;;;;2.70;1.50;;;17.70;99.90;;;;;;5030812;28;20561;-74
2021/06/21 09:05:49;;;;;;;2.43;1.70;;;18.10;99.90;;;;;;5026073;28;20450;-74
2021/06/21 09:08:17;;;;;;;1.70;1.60;;;18.40;99.90;;;;;;5028228;28;20489;-76
2021/06/21 09:10:46;;;;;;;1.83;1.50;;;18.50;99.90;;;;;;5026771;28;20448;-75
2021/06/21 09:13:14;;;;;;;1.27;1.10;;;18.80;99.90;;;;;;5029617;28;20804;-74
2021/06/21 09:15:43;;;;;;;1.27;1.17;;;18.90;99.90;;;;;;5030008;28;20901;-75
2021/06/21 09:18:32;;;;;;;1.47;1.37;;;18.90;99.90;;;;;;5027120;28;20478;-75
2021/06/21 09:21:30;;;;;;;4.33;2.77;;;19.00;99.90;;;;;;5021742;28;20507;-76
2021/06/21 09:24:01;;;;;;;2.10;1.83;;;18.80;99.90;;;;;;4930761;29;20547;-77
2021/06/21 09:26:31;;;;;;;4.60;2.37;;;18.80;99.90;;;;;;5003048;28;20463;-76
2021/06/21 09:29:00;;;;;;;3.80;2.47;;;18.70;99.90;;;;;;5030707;28;20451;-77
2021/06/21 09:31:28;;;;;;;5.13;4.50;;;18.60;99.90;;;;;;5030932;28;20474;-75
2021/06/21 09:34:14;;;;;;;1.80;1.70;;;18.60;99.90;;;;;;5033348;28;20463;-74
2021/06/21 09:36:41;;;;;;;4.90;4.00;;;18.60;99.90;;;;;;5017400;28;20893;-76
2021/06/21 09:39:20;;;;;;;1.77;1.60;;;18.50;99.90;;;;;;5033550;28;20473;-76
2021/06/21 09:42:09;;;;;;;2.10;1.90;;;18.50;99.90;;;;;;5034024;28;20847;-77
2021/06/21 09:44:40;;;;;;;1.90;1.63;;;18.30;99.90;;;;;;5027893;28;20537;-76
2021/06/21 09:47:23;;;;;;;2.90;2.30;;;18.20;99.90;;;;;;5034732;28;20805;-77
2021/06/21 09:50:08;;;;;;;2.37;1.73;;;18.20;99.90;;;;;;5015991;28;20834;-76
2021/06/21 09:52:58;;;;;;;1.60;1.50;;;18.30;99.90;;;;;;5027600;28;20474;-77
2021/06/21 09:55:29;;;;;;;2.23;1.70;;;18.30;99.90;;;;;;5020040;28;20465;-76
2021/06/21 09:58:10;;;;;;;1.93;1.73;;;18.40;99.90;;;;;;5033647;28;20489;-75
2021/06/21 10:00:38;;;;;;;1.63;1.50;;;18.50;99.90;;;;;;5014712;28;20453;-73
2021/06/21 10:03:14;;;;;;;3.50;1.90;;;18.50;99.90;;;;;;5043857;28;20476;-73
2021/06/21 10:05:43;;;;;;;2.03;1.80;;;18.60;99.90;;;;;;5039363;28;20451;-73
2021/06/21 10:08:12;;;;;;;3.93;1.77;;;18.60;99.90;;;;;;5036872;28;20450;-74
2021/06/21 10:10:41;;;;;;;2.17;1.97;;;18.60;99.90;;;;;;5038394;28;20754;-75
2021/06/21 10:13:11;;;;;;;1.60;1.50;;;18.50;99.90;;;;;;5034403;28;20777;-76
2021/06/21 10:15:39;;;;;;;2.90;1.60;;;18.40;99.90;;;;;;5034385;28;20457;-75
2021/06/21 10:18:08;;;;;;;2.20;2.00;;;18.40;99.90;;;;;;5033484;28;20496;-73
2021/06/21 10:20:37;;;;;;;2.47;2.27;;;18.30;99.90;;;;;;5033237;28;20447;-75
2021/06/21 10:23:06;;;;;;;1.50;1.40;;;18.40;99.90;;;;;;5028568;28;20536;-74
2021/06/21 10:25:34;;;;;;;2.20;2.03;;;18.40;99.90;;;;;;5033648;28;20975;-75
2021/06/21 10:28:03;;;;;;;3.87;2.67;;;18.40;99.90;;;;;;5033878;28;20896;-75
2021/06/21 10:30:32;;;;;;;3.30;3.00;;;18.30;99.90;;;;;;5033115;28;20785;-73
2021/06/21 10:33:00;;;;;;;2.43;2.23;;;18.20;99.90;;;;;;5033886;28;20506;-74
2021/06/21 10:35:31;;;;;;;1.97;1.87;;;18.10;99.90;;;;;;5032268;28;20451;-75
2021/06/21 10:38:01;;;;;;;2.23;2.03;;;18.10;99.90;;;;;;5030275;28;20615;-76
2021/06/21 10:40:30;;;;;;;4.87;3.00;;;18.10;99.90;;;;;;5027519;28;20455;-74
2021/06/21 10:42:57;;;;;;;3.58;2.80;;;18.10;99.90;;;;;;5032722;28;20534;-74
2021/06/21 10:45:27;;;;;;;2.47;2.28;;;18.10;99.90;;;;;;5033460;28;20238;-74
2021/06/21 10:48:15;;;;;;;3.57;3.20;;;18.10;99.90;;;;;;5029511;28;20215;-73
2021/06/21 10:50:50;;;;;;;2.70;2.50;;;18.10;99.90;;;;;;5028720;28;20455;-75
2021/06/21 10:53:18;;;;;;;2.63;2.42;;;18.00;99.90;;;;;;5032895;28;20473;-74
2021/06/21 10:55:51;;;;;;;3.08;2.85;;;18.10;99.90;;;;;;5032127;28;20212;-75
2021/06/21 10:58:49;;;;;;;2.90;2.70;;;18.20;99.90;;;;;;5023925;28;20337;-75
2021/06/21 11:01:21;;;;;;;2.77;2.53;;;18.50;99.90;;;;;;4974099;28;20463;-74
2021/06/21 11:03:54;;;;;;;3.17;2.87;;;18.70;99.90;;;;;;5022202;28;20465;-74
2021/06/21 11:06:41;;;;;;;3.60;3.30;;;18.80;99.90;;;;;;5032828;28;20511;-75
2021/06/21 11:09:10;;;;;;;3.07;2.87;;;18.80;99.90;;;;;;5025933;28;20493;-77
2021/06/21 11:11:51;;;;;;;2.40;2.20;;;18.90;99.90;;;;;;5032192;28;20613;-75
2021/06/21 11:14:22;;;;;;;3.00;2.70;;;18.90;99.90;;;;;;5028762;28;20457;-76
2021/06/21 11:16:50;;;;;;;3.20;2.83;;;18.90;99.90;;;;;;5029605;28;20461;-74
2021/06/21 11:19:32;;;;;;;3.47;3.17;;;18.90;99.90;;;;;;5033040;28;20917;-74
2021/06/21 11:22:06;;;;;;;2.70;2.50;;;18.90;99.90;;;;;;5032814;28;20519;-76
2021/06/21 11:25:04;;;;;;;2.77;2.57;;;18.90;99.90;;;;;;5025751;28;20465;-76
2021/06/21 11:27:43;;;;;;;4.00;3.70;;;18.90;99.90;;;;;;5029704;28;20924;-74
2021/06/21 11:30:35;;;;;;;3.73;3.43;;;18.80;99.90;;;;;;5032018;28;20513;-74
2021/06/21 11:33:05;;;;;;;4.80;3.50;;;18.90;99.90;;;;;;5032329;28;20466;-74
2021/06/21 11:35:53;;;;;;;3.87;3.50;;;18.90;99.90;;;;;;5029323;28;20458;-75
2021/06/21 11:38:22;;;;;;;3.63;3.33;;;19.00;99.90;;;;;;5030576;28;20528;-74
2021/06/21 11:41:10;;;;;;;5.13;4.17;;;19.00;99.90;;;;;;5028717;28;20455;-73
2021/06/21 11:43:45;;;;;;;3.90;3.60;;;19.00;99.90;;;;;;5028658;28;20661;-72
2021/06/21 11:46:32;;;;;;;3.97;3.57;;;19.10;99.90;;;;;;5020971;28;20446;-74
2021/06/21 11:49:05;;;;;;;3.43;3.13;;;19.10;99.90;;;;;;5029895;28;20901;-74
2021/06/21 11:51:34;;;;;;;5.30;4.80;;;19.10;99.90;;;;;;5028143;28;20466;-74
2021/06/21 11:54:03;;;;;;;4.23;3.93;;;19.10;99.90;;;;;;5027720;28;20575;-73
2021/06/21 11:56:31;;;;;;;3.70;3.40;;;19.00;99.90;;;;;;5023316;28;20516;-74
2021/06/21 11:58:59;;;;;;;3.33;3.10;;;19.00;99.90;;;;;;5028006;28;20584;-73
2021/06/21 12:01:28;;;;;;;6.00;5.50;;;19.00;99.90;;;;;;5025847;28;20497;-72
2021/06/21 12:03:56;;;;;;;9.10;7.80;;;19.00;99.90;;;;;;5030037;28;20527;-73
2021/06/21 12:06:24;;;;;;;4.97;4.57;;;19.10;99.90;;;;;;5025704;28;20540;-73
2021/06/21 12:08:53;;;;;;;19.60;13.40;;;19.30;99.90;;;;;;5030644;28;20533;-74
2021/06/21 12:11:22;;;;;;;15.30;10.10;;;19.50;99.90;;;;;;5031551;28;20470;-72
2021/06/21 12:13:57;;;;;;;15.77;9.90;;;19.90;99.90;;;;;;5030935;28;20512;-73
2021/06/21 12:16:25;;;;;;;5.53;5.07;;;20.00;99.90;;;;;;5032171;28;20458;-73
2021/06/21 12:18:56;;;;;;;6.63;5.43;;;20.00;99.90;;;;;;5022434;28;20929;-75
2021/06/21 12:21:35;;;;;;;4.23;3.80;;;20.10;99.90;;;;;;5030698;28;20470;-74
2021/06/21 12:24:18;;;;;;;3.00;2.80;;;20.20;99.90;;;;;;5028724;28;20439;-75
2021/06/21 12:26:48;;;;;;;5.53;4.33;;;20.20;99.90;;;;;;5023338;28;20451;-74
2021/06/21 12:29:20;;;;;;;8.07;5.87;;;20.20;99.90;;;;;;5029955;28;20806;-74
2021/06/21 12:31:55;;;;;;;7.57;6.43;;;20.20;99.90;;;;;;5029349;28;20469;-74
2021/06/21 12:34:50;;;;;;;3.97;3.67;;;20.30;99.90;;;;;;5027725;28;20645;-75
2021/06/21 12:37:21;;;;;;;6.67;3.73;;;20.50;99.90;;;;;;5025232;28;20510;-74
2021/06/21 12:39:51;;;;;;;3.10;2.50;;;20.70;99.90;;;;;;5031377;28;20451;-75
2021/06/21 12:42:19;;;;;;;6.00;5.40;;;20.70;99.90;;;;;;5029315;28;20478;-73
2021/06/21 12:44:47;;;;;;;2.27;1.93;;;20.60;99.90;;;;;;5027105;28;20453;-74
2021/06/21 12:47:20;;;;;;;4.20;3.00;;;20.60;99.90;;;;;;5033360;28;20781;-77
2021/06/21 12:49:50;;;;;;;3.43;3.13;;;20.70;99.90;;;;;;5032264;28;20443;-77
2021/06/21 12:52:19;;;;;;;1.87;1.70;;;20.80;99.90;;;;;;5041974;28;20463;-76
2021/06/21 12:54:47;;;;;;;2.10;1.90;;;20.80;99.90;;;;;;5042980;28;20454;-77
2021/06/21 12:57:16;;;;;;;2.87;2.67;;;21.00;99.90;;;;;;5038459;28;20452;-74
2021/06/21 12:59:43;;;;;;;3.47;2.57;;;21.10;99.90;;;;;;5038701;28;20493;-75
2021/06/21 13:02:22;;;;;;;2.37;2.17;;;21.30;99.90;;;;;;5044339;28;20472;-74
2021/06/21 13:04:57;;;;;;;2.93;2.70;;;21.30;99.90;;;;;;5135712;23;20498;-76